Time;durP1;ratioP1;P1;durP2;ratioP2;P2;SDS_P1;SDS_P2;PMS_P1;PMS_P2;Temp;Humidity;BMP_temperature;BMP_pressure;BME280_temperature;BME280_humidity;BME280_pressure;Samples;Min_cycle;Max_cycle;Signal;HPM_P1;HPM_P2
2022/11/20 00:02:14;;;;;;;;;;;-2.90;99.90;;;;;;5038118;28;19920;-81
2022/11/20 00:04:39;;;;;;;;;;;-2.90;99.90;;;;;;5036150;28;19920;-82
2022/11/20 00:07:05;;;;;;;;;;;-2.50;99.90;;;;;;5034024;28;19948;-81
2022/11/20 00:09:31;;;;;;;;;;;-2.80;99.90;;;;;;5021488;28;19967;-82
2022/11/20 00:11:56;;;;;;;;;;;-2.10;99.90;;;;;;5036435;28;20382;-82
2022/11/20 00:14:22;;;;;;;;;;;-2.70;99.90;;;;;;5019985;28;19921;-81
2022/11/20 00:16:47;;;;;;;;;;;-1.30;99.90;;;;;;5036018;28;19952;-81
2022/11/20 00:19:13;;;;;;;;;;;-1.70;99.90;;;;;;5036701;28;19932;-81
2022/11/20 00:21:38;;;;;;;;;;;-1.80;99.90;;;;;;5032061;28;20282;-80
2022/11/20 00:24:04;;;;;;;;;;;-2.60;99.90;;;;;;5019313;28;19932;-82
2022/11/20 00:26:30;;;;;;;;;;;-2.50;99.90;;;;;;5034980;28;19942;-81
2022/11/20 00:28:59;;;;;;;;;;;-2.50;99.90;;;;;;5022797;28;19921;-81
2022/11/20 00:31:25;;;;;;;;;;;-2.50;99.90;;;;;;5039320;28;19929;-81
2022/11/20 00:33:51;;;;;;;;;;;-2.40;99.90;;;;;;5037310;28;19921;-82
2022/11/20 00:36:18;;;;;;;;;;;-1.80;99.90;;;;;;5036236;28;19921;-82
2022/11/20 00:38:44;;;;;;;;;;;-2.40;99.90;;;;;;5020577;28;19927;-82
2022/11/20 00:41:10;;;;;;;;;;;-1.80;99.90;;;;;;5001663;28;19925;-81
2022/11/20 00:43:37;;;;;;;;;;;-2.10;99.90;;;;;;5033751;28;19977;-82
2022/11/20 00:46:07;;;;;;;;;;;-1.40;99.90;;;;;;5037249;28;19968;-82
2022/11/20 00:48:32;;;;;;;;;;;-2.30;99.90;;;;;;5036133;28;20456;-82
2022/11/20 00:50:58;;;;;;;;;;;-2.20;99.90;;;;;;5021199;28;19927;-81
2022/11/20 00:53:24;;;;;;;;;;;-0.90;99.90;;;;;;5020518;28;19921;-82
2022/11/20 00:55:54;;;;;;;;;;;-2.20;99.90;;;;;;5033313;28;19921;-81
2022/11/20 00:58:20;;;;;;;;;;;-2.10;99.90;;;;;;5018031;28;19921;-81
2022/11/20 01:00:45;;;;;;;;;;;-1.60;99.90;;;;;;5037394;28;19932;-81
2022/11/20 01:03:11;;;;;;;;;;;-2.10;99.90;;;;;;5016339;28;19928;-82
2022/11/20 01:05:37;;;;;;;;;;;-2.10;99.90;;;;;;5005266;28;19921;-81
2022/11/20 01:08:02;;;;;;;;;;;-2.10;99.90;;;;;;5019296;28;20396;-81
2022/11/20 01:10:28;;;;;;;;;;;-2.10;99.90;;;;;;5020170;28;19921;-82
2022/11/20 01:13:36;;;;;;;;;;;-2.00;99.90;;;;;;5018513;28;20371;-82
2022/11/20 01:15:39;;;;;;;;;;;-2.00;99.90;;;;;;5034793;28;19927;-81
2022/11/20 01:18:05;;;;;;;;;;;-2.00;99.90;;;;;;5019388;28;19920;-81
2022/11/20 01:20:34;;;;;;;;;;;-2.00;99.90;;;;;;5019536;28;19921;-81
2022/11/20 01:22:59;;;;;;;;;;;-2.00;99.90;;;;;;5016641;28;20060;-81
2022/11/20 01:25:25;;;;;;;;;;;-2.00;99.90;;;;;;5037390;28;19982;-81
2022/11/20 01:27:51;;;;;;;;;;;-1.40;99.90;;;;;;5035849;28;19921;-82
2022/11/20 01:30:16;;;;;;;;;;;-2.00;99.90;;;;;;5020194;28;19967;-81
2022/11/20 01:32:42;;;;;;;;;;;-2.00;99.90;;;;;;5021738;28;19925;-81
2022/11/20 01:35:09;;;;;;;;;;;-2.00;99.90;;;;;;5020039;28;19921;-82
2022/11/20 01:37:35;;;;;;;;;;;-2.00;99.90;;;;;;5037710;28;19989;-82
2022/11/20 01:40:00;;;;;;;;;;;-1.90;99.90;;;;;;5039006;28;19921;-82
2022/11/20 01:45:29;;;;;;;;;;;-2.00;99.90;;;;;;5035116;28;20339;-81
2022/11/20 01:47:55;;;;;;;;;;;-1.90;99.90;;;;;;5038904;28;19920;-82
2022/11/20 01:50:24;;;;;;;;;;;-1.90;99.90;;;;;;5042522;28;19952;-82
2022/11/20 01:52:56;;;;;;;;;;;-1.90;99.90;;;;;;5045083;28;19921;-81
2022/11/20 01:55:23;;;;;;;;;;;-1.90;99.90;;;;;;5037648;28;20418;-81
2022/11/20 01:57:49;;;;;;;;;;;-1.90;99.90;;;;;;5042123;28;19978;-81
2022/11/20 02:00:16;;;;;;;;;;;-1.90;99.90;;;;;;5024531;28;19921;-81
2022/11/20 02:02:44;;;;;;;;;;;-1.80;99.90;;;;;;5041084;28;19932;-81
2022/11/20 02:05:16;;;;;;;;;;;-1.80;99.90;;;;;;5027150;28;19921;-81
2022/11/20 02:07:42;;;;;;;;;;;-1.80;99.90;;;;;;5044658;28;19928;-81
2022/11/20 02:10:08;;;;;;;;;;;-1.80;99.90;;;;;;5040508;28;19927;-82
2022/11/20 02:15:18;;;;;;;;;;;-1.70;99.90;;;;;;5043803;28;19928;-81
2022/11/20 02:17:43;;;;;;;;;;;-1.70;99.90;;;;;;5042245;28;19920;-82
2022/11/20 02:20:09;;;;;;;;;;;-1.40;99.90;;;;;;5007882;28;20472;-81
2022/11/20 02:22:38;;;;;;;;;;;-1.70;99.90;;;;;;5007078;28;20012;-81
2022/11/20 02:25:05;;;;;;;;;;;-1.70;99.90;;;;;;5023322;28;19960;-82
2022/11/20 02:27:31;;;;;;;;;;;-1.70;99.90;;;;;;5041116;28;19921;-81
2022/11/20 02:29:57;;;;;;;;;;;-1.70;99.90;;;;;;5042582;28;19966;-81
2022/11/20 02:32:26;;;;;;;;;;;-1.70;99.90;;;;;;5020932;28;20011;-81
2022/11/20 02:34:52;;;;;;;;;;;-1.60;99.90;;;;;;5041625;28;20012;-81
2022/11/20 02:37:18;;;;;;;;;;;-1.60;99.90;;;;;;5023808;28;19968;-82
2022/11/20 02:39:45;;;;;;;;;;;-0.30;99.90;;;;;;5043119;28;19921;-81
2022/11/20 02:42:11;;;;;;;;;;;-0.30;99.90;;;;;;5040462;28;19927;-81
2022/11/20 02:44:36;;;;;;;;;;;-1.60;99.90;;;;;;5040045;28;19933;-81
2022/11/20 02:47:02;;;;;;;;;;;-1.60;99.90;;;;;;5022305;28;20540;-82
2022/11/20 02:49:28;;;;;;;;;;;-1.50;99.90;;;;;;5040880;28;19921;-81
2022/11/20 02:51:53;;;;;;;;;;;-1.60;99.90;;;;;;5026252;28;19920;-82
2022/11/20 02:54:19;;;;;;;;;;;-0.60;99.90;;;;;;5007099;28;19929;-82
2022/11/20 02:56:44;;;;;;;;;;;-1.10;99.90;;;;;;5025127;28;19921;-81
2022/11/20 02:59:10;;;;;;;;;;;-1.50;99.90;;;;;;5021533;28;19929;-82
2022/11/20 03:01:35;;;;;;;;;;;-1.50;99.90;;;;;;5021634;28;20266;-82
2022/11/20 03:04:01;;;;;;;;;;;-1.50;99.90;;;;;;5004954;28;20287;-82
2022/11/20 03:06:27;;;;;;;;;;;-1.50;99.90;;;;;;5037757;28;20008;-81
2022/11/20 03:08:52;;;;;;;;;;;-1.50;99.90;;;;;;5005300;28;19920;-82
2022/11/20 03:11:18;;;;;;;;;;;-1.50;99.90;;;;;;5023477;28;20007;-81
2022/11/20 03:13:43;;;;;;;;;;;-1.50;99.90;;;;;;5022061;28;19920;-81
2022/11/20 03:16:11;;;;;;;;;;;-1.40;99.90;;;;;;5024591;28;20011;-82
2022/11/20 03:18:37;;;;;;;;;;;-1.50;99.90;;;;;;5031080;28;19931;-81
2022/11/20 03:21:03;;;;;;;;;;;-1.40;99.90;;;;;;5037692;28;19920;-82
2022/11/20 03:23:30;;;;;;;;;;;-1.40;99.90;;;;;;5041335;28;20421;-82
2022/11/20 03:25:56;;;;;;;;;;;-1.50;99.90;;;;;;5024618;28;19927;-81
2022/11/20 03:28:22;;;;;;;;;;;-1.40;99.90;;;;;;5035954;28;20379;-81
2022/11/20 03:30:56;;;;;;;;;;;-0.90;99.90;;;;;;5039807;28;19932;-81
2022/11/20 03:33:21;;;;;;;;;;;-1.00;99.90;;;;;;5024672;28;19921;-81
2022/11/20 03:35:47;;;;;;;;;;;-1.40;99.90;;;;;;5019983;28;19935;-81
2022/11/20 03:38:12;;;;;;;;;;;-1.10;99.90;;;;;;5021087;28;20007;-81
2022/11/20 03:40:38;;;;;;;;;;;-1.00;99.90;;;;;;5041190;28;19960;-82
2022/11/20 03:43:04;;;;;;;;;;;-1.40;99.90;;;;;;5023053;28;19940;-81
2022/11/20 03:45:29;;;;;;;;;;;-1.40;99.90;;;;;;5007014;28;19942;-81
2022/11/20 03:47:55;;;;;;;;;;;-1.30;99.90;;;;;;5024808;28;19927;-81
2022/11/20 03:50:20;;;;;;;;;;;-1.30;99.90;;;;;;5008460;28;20374;-81
2022/11/20 03:52:46;;;;;;;;;;;-1.30;99.90;;;;;;5026728;28;19920;-81
2022/11/20 03:55:11;;;;;;;;;;;-1.30;99.90;;;;;;5018582;28;19921;-81
2022/11/20 03:57:37;;;;;;;;;;;-1.30;99.90;;;;;;5040173;28;19921;-81
2022/11/20 04:00:03;;;;;;;;;;;-1.20;99.90;;;;;;5023030;28;20038;-81
2022/11/20 04:02:29;;;;;;;;;;;-1.20;99.90;;;;;;5025274;28;19973;-81
2022/11/20 04:04:54;;;;;;;;;;;-0.20;99.90;;;;;;5025958;28;20011;-81
2022/11/20 04:07:20;;;;;;;;;;;-1.20;99.90;;;;;;5023985;28;19932;-81
2022/11/20 04:09:45;;;;;;;;;;;-0.40;99.90;;;;;;5024289;28;20469;-81
2022/11/20 04:12:11;;;;;;;;;;;-1.20;99.90;;;;;;5009363;28;19931;-82
2022/11/20 04:14:37;;;;;;;;;;;-1.20;99.90;;;;;;5010085;28;19927;-80
2022/11/20 04:17:03;;;;;;;;;;;-1.20;99.90;;;;;;5008678;28;19928;-81
2022/11/20 04:19:28;;;;;;;;;;;-1.20;99.90;;;;;;5042167;28;20436;-81
2022/11/20 04:21:54;;;;;;;;;;;-1.20;99.90;;;;;;5041399;28;19920;-81
2022/11/20 04:24:19;;;;;;;;;;;-1.10;99.90;;;;;;5035939;28;19931;-81
2022/11/20 04:26:45;;;;;;;;;;;-1.10;99.90;;;;;;5002306;28;19920;-81
2022/11/20 04:29:11;;;;;;;;;;;-1.20;99.90;;;;;;5035544;28;19921;-81
2022/11/20 04:31:37;;;;;;;;;;;-1.10;99.90;;;;;;5033097;28;19925;-81
2022/11/20 04:34:06;;;;;;;;;;;-1.10;99.90;;;;;;4969724;28;20478;-81
2022/11/20 04:36:33;;;;;;;;;;;-1.10;99.90;;;;;;4979792;28;19921;-81
2022/11/20 04:38:59;;;;;;;;;;;-1.10;99.90;;;;;;5006058;28;20321;-81
2022/11/20 04:41:26;;;;;;;;;;;-1.10;99.90;;;;;;4987385;28;19948;-81
2022/11/20 04:43:53;;;;;;;;;;;-1.10;99.90;;;;;;5002162;28;20027;-81
2022/11/20 04:46:19;;;;;;;;;;;-1.10;99.90;;;;;;5002753;28;19943;-81
2022/11/20 04:48:45;;;;;;;;;;;-1.10;99.90;;;;;;4994923;28;20405;-81
2022/11/20 04:51:12;;;;;;;;;;;-0.10;99.90;;;;;;5003481;28;20235;-81
2022/11/20 04:53:37;;;;;;;;;;;-1.00;99.90;;;;;;4989881;28;19921;-80
2022/11/20 04:56:04;;;;;;;;;;;-1.20;99.90;;;;;;4971803;28;19948;-81
2022/11/20 04:58:30;;;;;;;;;;;-1.20;99.90;;;;;;5005538;28;19921;-81
2022/11/20 05:01:03;;;;;;;;;;;-1.10;99.90;;;;;;4970427;28;19921;-81
2022/11/20 05:03:29;;;;;;;;;;;-1.10;99.90;;;;;;4993351;28;19929;-81
2022/11/20 05:05:54;;;;;;;;;;;-1.10;99.90;;;;;;4982449;28;19922;-81
2022/11/20 05:08:20;;;;;;;;;;;-0.20;99.90;;;;;;5007615;28;20433;-81
2022/11/20 05:10:45;;;;;;;;;;;-1.20;99.90;;;;;;4965673;28;19960;-81
2022/11/20 05:13:14;;;;;;;;;;;-1.20;99.90;;;;;;4983415;28;20409;-81
2022/11/20 05:15:40;;;;;;;;;;;-1.20;99.90;;;;;;5004532;28;20441;-82
2022/11/20 05:18:05;;;;;;;;;;;-1.20;99.90;;;;;;5002476;28;19929;-81
2022/11/20 05:20:31;;;;;;;;;;;0.20;99.90;;;;;;5007361;28;20432;-81
2022/11/20 05:22:57;;;;;;;;;;;-0.10;99.90;;;;;;5002605;28;19925;-81
2022/11/20 05:25:23;;;;;;;;;;;-1.10;99.90;;;;;;4971118;28;19932;-81
2022/11/20 05:27:48;;;;;;;;;;;-1.10;99.90;;;;;;4989760;28;19922;-81
2022/11/20 05:30:14;;;;;;;;;;;-1.10;99.90;;;;;;4975195;28;19952;-81
2022/11/20 05:32:39;;;;;;;;;;;-1.10;99.90;;;;;;5005905;28;19933;-81
2022/11/20 05:35:05;;;;;;;;;;;-1.10;99.90;;;;;;5006637;28;19926;-81
2022/11/20 05:37:31;;;;;;;;;;;-1.10;99.90;;;;;;4998568;28;20379;-80
2022/11/20 05:39:56;;;;;;;;;;;-1.00;99.90;;;;;;4994372;28;19928;-80
2022/11/20 05:42:31;;;;;;;;;;;-0.20;99.90;;;;;;4990218;28;19929;-81
2022/11/20 05:44:58;;;;;;;;;;;-1.00;99.90;;;;;;4975729;28;19925;-81
2022/11/20 05:47:24;;;;;;;;;;;-2.50;99.90;;;;;;5005683;28;19929;-81
2022/11/20 05:49:49;;;;;;;;;;;-1.00;99.90;;;;;;5010340;28;19976;-81
2022/11/20 05:52:15;;;;;;;;;;;-1.10;99.90;;;;;;4964257;28;19964;-81
2022/11/20 05:54:40;;;;;;;;;;;-1.10;99.90;;;;;;4968645;28;19930;-81
2022/11/20 05:57:06;;;;;;;;;;;-1.10;99.90;;;;;;4973003;28;19927;-82
2022/11/20 05:59:31;;;;;;;;;;;-1.10;99.90;;;;;;5001481;28;19925;-81
2022/11/20 06:01:57;;;;;;;;;;;-1.10;99.90;;;;;;5017992;28;19980;-81
2022/11/20 06:04:22;;;;;;;;;;;0.20;99.90;;;;;;4997388;28;20008;-81
2022/11/20 06:06:48;;;;;;;;;;;-1.10;99.90;;;;;;4991793;28;19921;-81
2022/11/20 06:09:13;;;;;;;;;;;-0.60;99.90;;;;;;4986861;28;20263;-81
2022/11/20 06:11:39;;;;;;;;;;;-1.10;99.90;;;;;;4997667;28;19928;-81
2022/11/20 06:14:05;;;;;;;;;;;-1.10;99.90;;;;;;5003645;28;19925;-81
2022/11/20 06:16:30;;;;;;;;;;;-1.10;99.90;;;;;;5004261;28;19941;-81
2022/11/20 06:18:56;;;;;;;;;;;-1.10;99.90;;;;;;4988550;28;20010;-81
2022/11/20 06:21:22;;;;;;;;;;;-1.10;99.90;;;;;;4987685;28;20294;-81
2022/11/20 06:23:49;;;;;;;;;;;-1.10;99.90;;;;;;5004632;28;19985;-82
2022/11/20 06:26:19;;;;;;;;;;;-0.40;99.90;;;;;;5000250;28;19928;-80
2022/11/20 06:28:44;;;;;;;;;;;-1.10;99.90;;;;;;5025216;28;19921;-81
2022/11/20 06:31:11;;;;;;;;;;;-1.10;99.90;;;;;;4987203;28;20020;-81
2022/11/20 06:33:37;;;;;;;;;;;-1.10;99.90;;;;;;5002698;28;19921;-80
2022/11/20 06:36:02;;;;;;;;;;;-1.10;99.90;;;;;;4982517;28;19921;-81
2022/11/20 06:38:28;;;;;;;;;;;-1.10;99.90;;;;;;5001715;28;19925;-81
2022/11/20 06:40:54;;;;;;;;;;;-1.10;99.90;;;;;;5016273;28;19920;-81
2022/11/20 06:43:19;;;;;;;;;;;-1.10;99.90;;;;;;5005564;28;19929;-81
2022/11/20 06:45:47;;;;;;;;;;;-1.10;99.90;;;;;;5023012;28;20162;-81
2022/11/20 06:48:16;;;;;;;;;;;-1.10;99.90;;;;;;5006871;28;19921;-81
2022/11/20 06:50:41;;;;;;;;;;;-1.00;99.90;;;;;;4988309;28;19984;-80
2022/11/20 06:53:07;;;;;;;;;;;-1.00;99.90;;;;;;5007759;28;19944;-81
2022/11/20 06:55:33;;;;;;;;;;;-0.60;99.90;;;;;;5006342;28;19921;-81
2022/11/20 06:57:58;;;;;;;;;;;-1.00;99.90;;;;;;5025116;28;19940;-80
2022/11/20 07:00:24;;;;;;;;;;;-1.00;99.90;;;;;;4990470;28;19975;-81
2022/11/20 07:02:49;;;;;;;;;;;-0.30;99.90;;;;;;5019391;28;20044;-81
2022/11/20 07:05:15;;;;;;;;;;;-1.00;99.90;;;;;;5007472;28;19999;-81
2022/11/20 07:07:41;;;;;;;;;;;-1.00;99.90;;;;;;5001860;28;19929;-80
2022/11/20 07:10:06;;;;;;;;;;;-0.20;99.90;;;;;;5038652;28;19928;-81
2022/11/20 07:12:32;;;;;;;;;;;-1.00;99.90;;;;;;5019112;28;19953;-80
2022/11/20 07:14:58;;;;;;;;;;;-1.00;99.90;;;;;;5020664;28;19979;-81
2022/11/20 07:17:23;;;;;;;;;;;-0.70;99.90;;;;;;5003949;28;19921;-80
2022/11/20 07:19:49;;;;;;;;;;;0.50;99.90;;;;;;5021719;28;19925;-80
2022/11/20 07:22:14;;;;;;;;;;;-0.70;99.90;;;;;;5036337;28;19964;-79
2022/11/20 07:24:40;;;;;;;;;;;-0.70;99.90;;;;;;5007168;28;19937;-81
2022/11/20 07:27:05;;;;;;;;;;;-0.50;99.90;;;;;;5021849;28;19925;-81
2022/11/20 07:29:31;;;;;;;;;;;-1.10;99.90;;;;;;5003270;28;19925;-80
2022/11/20 07:31:56;;;;;;;;;;;-1.00;99.90;;;;;;5006309;28;19956;-81
2022/11/20 07:34:22;;;;;;;;;;;-0.90;99.90;;;;;;5003095;28;19921;-81
2022/11/20 07:36:48;;;;;;;;;;;-1.00;99.90;;;;;;5018577;28;19987;-81
2022/11/20 07:39:14;;;;;;;;;;;-1.00;99.90;;;;;;5026893;28;19966;-81
2022/11/20 07:41:39;;;;;;;;;;;-0.30;99.90;;;;;;5020396;28;19936;-80
2022/11/20 07:44:05;;;;;;;;;;;-1.00;99.90;;;;;;5002338;28;19984;-80
2022/11/20 07:46:30;;;;;;;;;;;-0.90;99.90;;;;;;4986596;28;19972;-81
2022/11/20 07:48:56;;;;;;;;;;;-1.00;99.90;;;;;;5004401;28;19945;-81
2022/11/20 07:51:22;;;;;;;;;;;-0.90;99.90;;;;;;5035276;28;19960;-81
2022/11/20 07:53:47;;;;;;;;;;;-0.90;99.90;;;;;;5003419;28;19932;-80
2022/11/20 07:56:13;;;;;;;;;;;-0.90;99.90;;;;;;5004524;28;19939;-83
2022/11/20 07:58:39;;;;;;;;;;;-1.00;99.90;;;;;;5025571;28;19932;-81
2022/11/20 08:01:06;;;;;;;;;;;-0.90;99.90;;;;;;5026411;28;19921;-83
2022/11/20 08:03:32;;;;;;;;;;;-0.90;99.90;;;;;;5007419;28;19925;-83
2022/11/20 08:06:01;;;;;;;;;;;-1.00;99.90;;;;;;5024687;28;19979;-81
2022/11/20 08:08:27;;;;;;;;;;;-1.00;99.90;;;;;;5025935;28;19928;-81
2022/11/20 08:14:11;;;;;;;;;;;0.00;99.90;;;;;;4989811;28;19929;-82
2022/11/20 08:16:23;;;;;;;;;;;-1.00;99.90;;;;;;5025041;28;20004;-81
2022/11/20 08:18:49;;;;;;;;;;;-0.90;99.90;;;;;;5010712;28;19960;-83
2022/11/20 08:21:15;;;;;;;;;;;-0.90;99.90;;;;;;5028044;28;19926;-80
2022/11/20 08:23:40;;;;;;;;;;;-0.90;99.90;;;;;;5023139;28;20011;-79
2022/11/20 08:26:06;;;;;;;;;;;-0.80;99.90;;;;;;4985457;28;19921;-78
2022/11/20 08:28:31;;;;;;;;;;;-0.90;99.90;;;;;;5001559;28;19921;-77
2022/11/20 08:30:58;;;;;;;;;;;0.10;99.90;;;;;;5001908;28;19944;-79
2022/11/20 08:33:23;;;;;;;;;;;-0.50;99.90;;;;;;5022967;28;19933;-79
2022/11/20 08:35:49;;;;;;;;;;;-0.70;99.90;;;;;;5020540;28;19986;-78
2022/11/20 08:38:14;;;;;;;;;;;-0.80;99.90;;;;;;5002194;28;19928;-80
2022/11/20 08:40:40;;;;;;;;;;;-0.30;99.90;;;;;;4989583;28;20004;-81
2022/11/20 08:43:06;;;;;;;;;;;-0.20;99.90;;;;;;4984868;28;20381;-81
2022/11/20 08:45:31;;;;;;;;;;;-0.70;99.90;;;;;;5014872;28;19935;-79
2022/11/20 08:48:00;;;;;;;;;;;-0.70;99.90;;;;;;5016320;28;19925;-80
2022/11/20 08:50:25;;;;;;;;;;;-0.70;99.90;;;;;;5016433;28;19947;-81
2022/11/20 08:52:51;;;;;;;;;;;-0.60;99.90;;;;;;5014934;28;19921;-80
2022/11/20 08:55:16;;;;;;;;;;;-0.60;99.90;;;;;;5000425;28;19943;-82
2022/11/20 08:57:43;;;;;;;;;;;-0.50;99.90;;;;;;4982753;28;20017;-82
2022/11/20 09:00:10;;;;;;;;;;;1.60;99.90;;;;;;5031311;28;20337;-80
2022/11/20 09:02:36;;;;;;;;;;;-0.50;99.90;;;;;;5015345;28;19967;-80
2022/11/20 09:05:02;;;;;;;;;;;-0.40;99.90;;;;;;4999928;28;19964;-79
2022/11/20 09:07:28;;;;;;;;;;;-0.40;99.90;;;;;;5029878;28;19964;-81
2022/11/20 09:09:53;;;;;;;;;;;-0.50;99.90;;;;;;4997680;28;21758;-81
2022/11/20 09:12:19;;;;;;;;;;;-0.40;99.90;;;;;;5012910;28;20379;-80
2022/11/20 09:14:44;;;;;;;;;;;-0.40;99.90;;;;;;5003828;28;19921;-80
2022/11/20 09:17:13;;;;;;;;;;;0.30;99.90;;;;;;5031849;28;19928;-80
2022/11/20 09:19:39;;;;;;;;;;;-0.40;99.90;;;;;;5014634;28;19933;-81
2022/11/20 09:22:04;;;;;;;;;;;-0.40;99.90;;;;;;4993579;28;19921;-80
2022/11/20 09:24:30;;;;;;;;;;;-0.30;99.90;;;;;;5013796;28;20016;-81
2022/11/20 09:26:55;;;;;;;;;;;0.10;99.90;;;;;;5014160;28;19925;-79
2022/11/20 09:29:21;;;;;;;;;;;-0.30;99.90;;;;;;5033509;28;19959;-81
2022/11/20 09:31:46;;;;;;;;;;;-0.20;99.90;;;;;;5010718;28;20390;-81
2022/11/20 09:34:12;;;;;;;;;;;-0.20;99.90;;;;;;5014921;28;19969;-80
2022/11/20 09:36:37;;;;;;;;;;;-0.20;99.90;;;;;;4995024;28;19936;-80
2022/11/20 09:39:03;;;;;;;;;;;-0.20;99.90;;;;;;5029443;28;19948;-82
2022/11/20 09:41:32;;;;;;;;;;;-0.10;99.90;;;;;;5014478;28;19951;-83
2022/11/20 09:44:00;;;;;;;;;;;-0.10;99.90;;;;;;4998856;28;20381;-82
2022/11/20 09:46:35;;;;;;;;;;;-0.10;99.90;;;;;;5015287;28;19925;-80
2022/11/20 09:49:07;;;;;;;;;;;0.00;99.90;;;;;;4996286;28;19976;-81
2022/11/20 09:51:42;;;;;;;;;;;0.00;99.90;;;;;;5010512;28;20000;-81
2022/11/20 09:54:16;;;;;;;;;;;0.00;99.90;;;;;;5013896;28;19921;-81
2022/11/20 09:56:43;;;;;;;;;;;0.10;99.90;;;;;;5011995;28;19920;-81
2022/11/20 09:59:18;;;;;;;;;;;0.10;99.90;;;;;;4995300;28;19928;-79
2022/11/20 10:01:44;;;;;;;;;;;0.10;99.90;;;;;;4998802;28;20415;-80
2022/11/20 10:04:13;;;;;;;;;;;0.10;99.90;;;;;;5012727;28;19960;-83
2022/11/20 10:06:41;;;;;;;;;;;0.10;99.90;;;;;;5012851;28;19921;-80
2022/11/20 10:09:13;;;;;;;;;;;0.10;99.90;;;;;;4998806;28;19929;-79
2022/11/20 10:11:53;;;;;;;;;;;0.20;99.90;;;;;;5002571;28;19921;-78
2022/11/20 10:14:34;;;;;;;;;;;0.20;99.90;;;;;;5019588;28;19980;-82
2022/11/20 10:17:18;;;;;;;;;;;0.20;99.90;;;;;;5035263;28;19925;-85
2022/11/20 10:20:03;;;;;;;;;;;0.30;99.90;;;;;;5011606;28;20267;-84
2022/11/20 10:22:44;;;;;;;;;;;0.30;99.90;;;;;;5004062;28;19983;-82
2022/11/20 10:25:19;;;;;;;;;;;0.40;99.90;;;;;;5007052;28;19932;-82
2022/11/20 10:28:03;;;;;;;;;;;0.40;99.90;;;;;;5019988;28;19972;-81
2022/11/20 10:30:30;;;;;;;;;;;0.50;99.90;;;;;;5004866;28;19949;-82
2022/11/20 10:32:59;;;;;;;;;;;0.60;99.90;;;;;;5014868;28;19933;-82
2022/11/20 10:35:33;;;;;;;;;;;0.70;99.90;;;;;;5017968;28;19932;-82
2022/11/20 10:38:00;;;;;;;;;;;1.30;99.90;;;;;;5034553;28;19928;-83
2022/11/20 10:40:25;;;;;;;;;;;0.90;99.90;;;;;;5003687;28;19917;-88
2022/11/20 10:43:01;;;;;;;;;;;0.90;99.90;;;;;;4997398;28;20305;-81
2022/11/20 10:45:27;;;;;;;;;;;1.00;99.90;;;;;;5030813;28;20053;-83
2022/11/20 10:48:31;;;;;;;;;;;1.70;99.90;;;;;;5015566;28;20000;-83
2022/11/20 10:50:59;;;;;;;;;;;1.20;99.90;;;;;;4910630;29;19931;-83
2022/11/20 10:53:47;;;;;;;;;;;1.30;99.90;;;;;;4920117;29;19929;-83
2022/11/20 10:56:18;;;;;;;;;;;1.40;99.90;;;;;;4973618;28;19921;-85
2022/11/20 10:58:56;;;;;;;;;;;1.50;99.90;;;;;;5003549;28;19976;-81
2022/11/20 11:01:23;;;;;;;;;;;1.60;99.90;;;;;;5033796;28;19921;-81
2022/11/20 11:03:49;;;;;;;;;;;1.70;99.90;;;;;;5018768;28;19929;-79
2022/11/20 11:06:34;;;;;;;;;;;1.80;99.90;;;;;;4977554;28;19991;-80
2022/11/20 11:09:01;;;;;;;;;;;2.00;99.90;;;;;;5015516;28;19933;-82
2022/11/20 11:11:32;;;;;;;;;;;2.20;99.90;;;;;;5021763;28;19952;-85
2022/11/20 11:14:04;;;;;;;;;;;2.20;99.90;;;;;;5017275;28;19925;-83
2022/11/20 11:16:30;;;;;;;;;;;2.20;99.90;;;;;;5018738;28;19928;-83
2022/11/20 11:19:05;;;;;;;;;;;2.20;99.90;;;;;;5011343;28;20306;-83
2022/11/20 11:21:31;;;;;;;;;;;2.10;99.90;;;;;;5015814;28;20015;-83
2022/11/20 11:23:58;;;;;;;;;;;2.10;99.90;;;;;;5002456;28;19983;-83
2022/11/20 11:26:25;;;;;;;;;;;2.20;99.90;;;;;;5017909;28;19921;-82
2022/11/20 11:28:55;;;;;;;;;;;2.10;99.90;;;;;;5003335;28;19928;-83
2022/11/20 11:31:24;;;;;;;;;;;2.10;99.90;;;;;;5000731;28;19921;-82
2022/11/20 11:33:50;;;;;;;;;;;2.00;99.90;;;;;;4997781;28;19928;-83
2022/11/20 11:36:17;;;;;;;;;;;2.10;99.90;;;;;;4997607;28;19921;-83
2022/11/20 11:38:43;;;;;;;;;;;2.10;99.90;;;;;;5033094;28;19921;-82
2022/11/20 11:41:12;;;;;;;;;;;2.40;99.90;;;;;;5018112;28;19936;-83
2022/11/20 11:46:25;;;;;;;;;;;2.10;99.90;;;;;;5030549;28;19992;-82
2022/11/20 11:48:57;;;;;;;;;;;2.10;99.90;;;;;;5019414;28;19922;-84
2022/11/20 11:51:24;;;;;;;;;;;2.00;99.90;;;;;;5013835;28;19928;-83
2022/11/20 11:53:50;;;;;;;;;;;2.00;99.90;;;;;;5000538;28;20015;-83
2022/11/20 11:56:16;;;;;;;;;;;1.90;99.90;;;;;;4983926;28;20426;-81
2022/11/20 11:58:45;;;;;;;;;;;1.80;99.90;;;;;;4996916;28;19955;-83
2022/11/20 12:01:29;;;;;;;;;;;2.30;99.90;;;;;;5019837;28;20458;-82
2022/11/20 12:04:10;;;;;;;;;;;1.90;99.90;;;;;;5014178;28;20382;-83
2022/11/20 12:06:36;;;;;;;;;;;2.00;99.90;;;;;;5002146;28;19925;-82
2022/11/20 12:09:03;;;;;;;;;;;2.10;99.90;;;;;;5002815;28;19927;-81
2022/11/20 12:11:34;;;;;;;;;;;2.10;99.90;;;;;;4999541;28;19932;-80
2022/11/20 12:14:23;;;;;;;;;;;2.10;99.90;;;;;;4999588;28;19921;-82
2022/11/20 12:16:50;;;;;;;;;;;2.20;99.90;;;;;;5019340;28;20502;-82
2022/11/20 12:19:15;;;;;;;;;;;3.00;99.90;;;;;;5014130;28;19921;-82
2022/11/20 12:21:59;;;;;;;;;;;2.50;99.90;;;;;;5017683;28;20037;-82
2022/11/20 12:24:28;;;;;;;;;;;2.70;99.90;;;;;;5013283;28;19929;-82
2022/11/20 12:26:57;;;;;;;;;;;3.00;99.90;;;;;;5012989;28;20383;-81
2022/11/20 12:29:25;;;;;;;;;;;3.20;99.90;;;;;;5006225;28;19933;-83
2022/11/20 12:31:51;;;;;;;;;;;3.40;99.90;;;;;;5027806;28;19961;-82
2022/11/20 12:34:17;;;;;;;;;;;3.70;99.90;;;;;;4999706;28;19958;-82
2022/11/20 12:36:51;;;;;;;;;;;3.80;99.90;;;;;;4975924;28;19968;-83
2022/11/20 12:39:29;;;;;;;;;;;4.50;99.90;;;;;;4999687;28;19929;-83
2022/11/20 12:47:37;;;;;;;;;;;4.00;99.90;;;;;;5019489;28;19925;-84
2022/11/20 12:50:14;;;;;;;;;;;4.00;99.90;;;;;;4986467;28;19937;-82
2022/11/20 12:52:48;;;;;;;;;;;3.70;99.90;;;;;;4991158;28;19984;-80
2022/11/20 12:55:17;;;;;;;;;;;3.50;99.90;;;;;;4991122;28;19921;-80
2022/11/20 12:57:49;;;;;;;;;;;3.30;99.90;;;;;;4988759;28;19932;-80
2022/11/20 13:00:18;;;;;;;;;;;3.30;99.90;;;;;;4991326;28;19925;-80
2022/11/20 13:02:59;;;;;;;;;;;3.20;99.90;;;;;;4990260;28;19921;-80
2022/11/20 13:05:35;;;;;;;;;;;3.30;99.90;;;;;;5005165;28;19925;-80
2022/11/20 13:08:01;;;;;;;;;;;3.30;99.90;;;;;;4990783;28;19925;-81
2022/11/20 13:10:46;;;;;;;;;;;3.40;99.90;;;;;;4991716;28;20017;-81
2022/11/20 13:13:14;;;;;;;;;;;3.30;99.90;;;;;;4975198;28;19952;-80
2022/11/20 13:16:16;;;;;;;;;;;3.20;99.90;;;;;;4987749;28;19922;-80
2022/11/20 13:18:42;;;;;;;;;;;3.20;99.90;;;;;;4945755;28;19985;-80
2022/11/20 13:21:18;;;;;;;;;;;3.20;99.90;;;;;;5000744;28;20437;-80
2022/11/20 13:23:44;;;;;;;;;;;3.10;99.90;;;;;;5007095;28;19932;-80
2022/11/20 13:26:15;;;;;;;;;;;3.10;99.90;;;;;;5004821;28;19925;-79
2022/11/20 13:28:41;;;;;;;;;;;2.90;99.90;;;;;;4997014;28;20016;-80
2022/11/20 13:31:24;;;;;;;;;;;2.70;99.90;;;;;;4974822;28;20426;-80
2022/11/20 13:33:52;;;;;;;;;;;2.60;99.90;;;;;;4997176;28;19925;-79
2022/11/20 13:36:22;;;;;;;;;;;2.70;99.90;;;;;;5012785;28;19921;-80
2022/11/20 13:38:52;;;;;;;;;;;2.50;99.90;;;;;;4997738;28;19927;-80
2022/11/20 13:41:44;;;;;;;;;;;2.50;99.90;;;;;;5012966;28;19925;-80
2022/11/20 13:44:09;;;;;;;;;;;2.40;99.90;;;;;;4987677;28;19929;-80
2022/11/20 13:46:36;;;;;;;;;;;2.40;99.90;;;;;;5013977;28;20024;-80
2022/11/20 13:49:07;;;;;;;;;;;3.00;99.90;;;;;;5013046;28;19921;-81
2022/11/20 13:51:52;;;;;;;;;;;2.50;99.90;;;;;;5014316;28;20044;-80
2022/11/20 13:54:43;;;;;;;;;;;4.00;99.90;;;;;;4939574;28;19922;-79
2022/11/20 13:57:18;;;;;;;;;;;2.50;99.90;;;;;;5006121;28;19936;-80
2022/11/20 13:59:52;;;;;;;;;;;2.50;99.90;;;;;;5014953;28;20549;-80
2022/11/20 14:02:19;;;;;;;;;;;2.50;99.90;;;;;;5012829;28;20327;-79
2022/11/20 14:04:46;;;;;;;;;;;2.50;99.90;;;;;;4996041;28;19926;-79
2022/11/20 14:07:12;;;;;;;;;;;2.40;99.90;;;;;;4995001;28;19921;-80
2022/11/20 14:09:38;;;;;;;;;;;2.90;99.90;;;;;;5013213;28;19971;-79
2022/11/20 14:12:04;;;;;;;;;;;2.40;99.90;;;;;;5014468;28;19921;-80
2022/11/20 14:14:30;;;;;;;;;;;2.30;99.90;;;;;;4997742;28;20270;-79
2022/11/20 14:17:16;;;;;;;;;;;2.30;99.90;;;;;;5011185;28;19936;-80
2022/11/20 14:19:43;;;;;;;;;;;2.30;99.90;;;;;;5013267;28;19925;-80
2022/11/20 14:22:15;;;;;;;;;;;2.10;99.90;;;;;;4995280;28;20361;-80
2022/11/20 14:24:41;;;;;;;;;;;2.10;99.90;;;;;;5003232;28;19932;-80
2022/11/20 14:27:20;;;;;;;;;;;2.50;99.90;;;;;;4993502;28;19925;-80
2022/11/20 14:29:47;;;;;;;;;;;2.00;99.90;;;;;;5027524;28;19976;-80
2022/11/20 14:32:21;;;;;;;;;;;2.00;99.90;;;;;;5012834;28;19925;-80
2022/11/20 14:34:48;;;;;;;;;;;1.90;99.90;;;;;;4986272;28;20063;-80
2022/11/20 14:37:19;;;;;;;;;;;1.90;99.90;;;;;;5008698;28;19921;-80
2022/11/20 14:39:49;;;;;;;;;;;1.90;99.90;;;;;;5009047;28;20437;-79
2022/11/20 14:42:22;;;;;;;;;;;1.80;99.90;;;;;;4991434;28;19928;-79
2022/11/20 14:44:49;;;;;;;;;;;1.70;99.90;;;;;;4990998;28;19925;-79